Time;durP1;ratioP1;P1;durP2;ratioP2;P2;SDS_P1;SDS_P2;PMS_P1;PMS_P2;Temp;Humidity;BMP_temperature;BMP_pressure;BME280_temperature;BME280_humidity;BME280_pressure;Samples;Min_cycle;Max_cycle;Signal;HPM_P1;HPM_P2
2020/12/01 00:00:54;;;;;;;43.70;21.02;;;;;;;0.82;93.93;101617.13;1749620;82;21019;-37
2020/12/01 00:03:22;;;;;;;45.73;22.22;;;;;;;0.83;93.91;101620.56;1749790;82;20971;-36
2020/12/01 00:05:52;;;;;;;36.13;18.55;;;;;;;0.83;93.94;101622.70;1749854;82;20978;-37
2020/12/01 00:08:21;;;;;;;40.40;20.92;;;;;;;0.83;93.96;101626.52;1749905;82;21030;-36
2020/12/01 00:10:49;;;;;;;40.05;21.70;;;;;;;0.83;93.99;101627.80;1749870;82;21205;-38
2020/12/01 00:13:19;;;;;;;45.05;22.02;;;;;;;0.86;93.95;101626.64;1749720;82;20927;-35
2020/12/01 00:15:47;;;;;;;57.15;24.43;;;;;;;0.84;93.94;101623.16;1749770;82;21030;-34
2020/12/01 00:18:16;;;;;;;62.65;25.20;;;;;;;0.85;93.95;101626.17;1749863;82;20943;-34
2020/12/01 00:20:44;;;;;;;38.38;19.07;;;;;;;0.85;93.98;101624.90;1749953;82;20995;-35
2020/12/01 00:23:12;;;;;;;47.00;23.67;;;;;;;0.88;93.98;101627.10;1749890;82;22689;-36
2020/12/01 00:25:40;;;;;;;34.73;20.80;;;;;;;0.85;93.93;101626.59;1749934;82;21089;-34
2020/12/01 00:28:08;;;;;;;45.45;23.02;;;;;;;0.83;93.97;101630.34;1749820;82;20998;-36
2020/12/01 00:30:36;;;;;;;52.58;23.15;;;;;;;0.84;94.00;101633.36;1749812;82;20927;-35
2020/12/01 00:33:04;;;;;;;48.28;23.98;;;;;;;0.85;94.02;101628.72;1749963;82;21022;-35
2020/12/01 00:35:32;;;;;;;45.67;21.93;;;;;;;0.88;93.98;101634.75;1749956;82;22282;-34
2020/12/01 00:38:00;;;;;;;43.20;21.75;;;;;;;0.89;93.97;101634.83;1749752;82;20987;-34
2020/12/01 00:40:28;;;;;;;37.90;21.27;;;;;;;0.88;94.01;101630.54;1749810;82;20971;-35
2020/12/01 00:42:56;;;;;;;43.25;21.05;;;;;;;0.89;94.04;101630.16;1749770;82;21031;-36
2020/12/01 00:45:23;;;;;;;43.00;20.37;;;;;;;0.89;94.02;101635.25;1749884;82;21054;-34
2020/12/01 00:47:52;;;;;;;39.05;20.72;;;;;;;0.91;94.04;101634.91;1749908;82;22582;-35
2020/12/01 00:50:23;;;;;;;45.83;21.95;;;;;;;0.88;94.06;101630.93;1749722;82;20951;-34
2020/12/01 00:52:51;;;;;;;48.23;25.32;;;;;;;0.86;94.08;101634.29;1749809;82;20963;-35
2020/12/01 00:55:20;;;;;;;33.88;20.00;;;;;;;0.89;94.06;101637.80;1749904;82;21423;-35
2020/12/01 00:57:48;;;;;;;43.48;21.33;;;;;;;0.90;94.07;101641.67;1749851;82;21402;-34
2020/12/01 01:00:20;;;;;;;48.02;22.80;;;;;;;0.90;94.08;101638.27;1735950;82;21248;-35
2020/12/01 01:02:52;;;;;;;52.43;25.30;;;;;;;0.89;94.06;101640.35;1734201;82;21179;-35
2020/12/01 01:05:21;;;;;;;45.15;22.25;;;;;;;0.86;94.03;101637.26;1735858;82;20944;-35
2020/12/01 01:07:49;;;;;;;39.50;20.88;;;;;;;0.88;94.05;101639.47;1735861;82;20917;-34
2020/12/01 01:10:25;;;;;;;35.90;18.95;;;;;;;0.88;94.03;101643.67;1735845;82;20941;-35
2020/12/01 01:14:22;;;;;;;46.08;24.00;;;;;;;0.89;94.03;101641.62;1816156;79;22604;-35
2020/12/01 01:16:50;;;;;;;47.53;23.22;;;;;;;0.79;93.97;101638.69;1789312;80;20943;-35
2020/12/01 01:19:18;;;;;;;40.80;21.62;;;;;;;0.78;94.00;101642.46;1789308;80;22382;-37
2020/12/01 01:21:48;;;;;;;34.73;19.32;;;;;;;0.77;93.98;101639.02;1789174;80;20987;-34
2020/12/01 01:24:18;;;;;;;35.10;19.10;;;;;;;0.74;94.03;101635.47;1789295;80;21057;-36
2020/12/01 01:26:53;;;;;;;36.10;20.30;;;;;;;0.74;94.03;101644.00;1789340;80;20994;-36
2020/12/01 01:29:21;;;;;;;43.83;23.92;;;;;;;0.73;94.04;101642.66;1789286;80;20911;-36
2020/12/01 01:31:54;;;;;;;38.90;20.60;;;;;;;0.70;94.02;101638.32;1789215;80;21197;-36
2020/12/01 01:34:22;;;;;;;48.17;24.92;;;;;;;0.72;94.08;101644.34;1789218;80;20939;-36
2020/12/01 01:36:51;;;;;;;111.50;26.62;;;;;;;0.70;94.08;101639.59;1789254;80;20923;-35
2020/12/01 01:39:19;;;;;;;45.65;24.25;;;;;;;0.70;94.07;101648.09;1789164;80;21034;-36
2020/12/01 01:41:46;;;;;;;47.50;23.32;;;;;;;0.72;94.06;101648.17;1789267;80;20923;-35
2020/12/01 01:44:25;;;;;;;41.10;22.60;;;;;;;0.70;94.04;101645.55;1789243;80;21196;-35
2020/12/01 01:46:56;;;;;;;46.90;23.75;;;;;;;0.70;94.05;101647.23;1789031;80;21034;-36
2020/12/01 01:49:32;;;;;;;40.50;22.07;;;;;;;0.69;94.08;101641.67;1789231;80;21042;-36
2020/12/01 01:52:00;;;;;;;38.60;22.32;;;;;;;0.69;94.07;101642.95;1788522;80;20923;-37
2020/12/01 01:54:27;;;;;;;43.30;22.67;;;;;;;0.70;94.08;101648.09;1789376;80;21121;-34
2020/12/01 01:56:59;;;;;;;39.85;22.58;;;;;;;0.70;94.07;101649.37;1789203;80;21265;-35
2020/12/01 01:59:26;;;;;;;46.30;25.50;;;;;;;0.69;94.09;101646.36;1789191;80;21006;-36
2020/12/01 02:01:55;;;;;;;42.15;23.73;;;;;;;0.73;94.10;101651.58;1789130;80;21517;-35
2020/12/01 02:04:24;;;;;;;50.03;23.98;;;;;;;0.74;94.09;101647.83;1789177;80;20943;-35
2020/12/01 02:06:54;;;;;;;51.08;27.73;;;;;;;0.75;94.12;101645.74;1789236;80;20885;-35
2020/12/01 02:09:35;;;;;;;46.55;26.52;;;;;;;0.78;94.11;101650.11;1789172;80;21275;-36
2020/12/01 02:12:05;;;;;;;48.42;25.10;;;;;;;0.82;94.08;101657.07;1789155;80;21173;-35
2020/12/01 02:14:55;;;;;;;52.48;26.30;;;;;;;0.84;94.08;101649.93;1781759;80;20951;-37
2020/12/01 02:17:32;;;;;;;51.35;26.95;;;;;;;0.86;94.08;101655.11;1781442;80;21050;-36
2020/12/01 02:20:08;;;;;;;53.42;27.55;;;;;;;0.89;94.10;101656.92;1781565;80;20912;-36
2020/12/01 02:22:35;;;;;;;49.45;26.95;;;;;;;0.93;94.09;101651.98;1781547;80;21438;-36
2020/12/01 02:25:04;;;;;;;53.02;25.00;;;;;;;0.97;94.07;101654.27;1781016;80;21073;-36
2020/12/01 02:27:32;;;;;;;35.28;21.48;;;;;;;0.98;94.04;101648.36;1781052;80;20920;-35
2020/12/01 02:30:00;;;;;;;46.00;26.40;;;;;;;0.99;94.06;101647.55;1780758;80;21054;-36
2020/12/01 02:32:28;;;;;;;38.70;23.62;;;;;;;0.99;94.05;101652.65;1780956;80;21039;-35
2020/12/01 02:35:03;;;;;;;31.80;18.35;;;;;;;1.01;94.04;101651.03;1780848;80;21434;-35
2020/12/01 02:37:28;;;;;;;37.45;22.37;;;;;;;1.03;94.03;101654.50;1779953;80;21525;-35
2020/12/01 02:39:56;;;;;;;39.80;23.60;;;;;;;1.02;94.03;101654.47;1780802;80;21085;-37
2020/12/01 02:42:27;;;;;;;32.93;19.15;;;;;;;1.03;94.06;101657.48;1780882;80;21054;-36
2020/12/01 02:44:56;;;;;;;33.85;20.52;;;;;;;1.06;94.06;101653.34;1780779;80;20995;-37
2020/12/01 02:47:26;;;;;;;29.07;17.37;;;;;;;1.05;94.02;101659.69;1777549;80;21378;-36
2020/12/01 02:49:54;;;;;;;44.08;19.77;;;;;;;1.05;94.00;101656.71;1780800;80;21504;-36
2020/12/01 02:52:23;;;;;;;41.33;21.07;;;;;;;1.04;94.01;101660.49;1780824;80;20884;-37
2020/12/01 02:54:51;;;;;;;48.95;20.97;;;;;;;1.03;94.00;101655.78;1780904;80;21039;-34
2020/12/01 02:57:20;;;;;;;33.38;21.70;;;;;;;1.05;93.97;101657.98;1780826;80;20943;-37
2020/12/01 02:59:47;;;;;;;34.13;20.52;;;;;;;1.05;93.96;101654.58;1780897;80;21196;-35
2020/12/01 03:02:15;;;;;;;37.33;21.33;;;;;;;1.04;93.96;101660.08;1780749;80;20971;-35
2020/12/01 03:04:43;;;;;;;32.30;19.10;;;;;;;1.06;93.97;101661.00;1780928;80;20986;-36
2020/12/01 03:07:11;;;;;;;29.32;19.40;;;;;;;1.08;93.94;101658.53;1780843;80;20939;-36
2020/12/01 03:09:40;;;;;;;34.88;20.00;;;;;;;1.06;93.90;101655.90;1780924;80;21070;-36
2020/12/01 03:12:07;;;;;;;31.25;20.00;;;;;;;1.07;93.96;101661.47;1780913;80;22157;-36
2020/12/01 03:14:37;;;;;;;33.25;20.97;;;;;;;1.08;93.97;101655.55;1775897;80;20983;-35
2020/12/01 03:17:05;;;;;;;34.18;21.35;;;;;;;1.12;93.96;101656.56;1775023;80;20983;-35
2020/12/01 03:19:34;;;;;;;40.10;23.00;;;;;;;1.16;93.98;101662.66;1775061;80;20920;-36
2020/12/01 03:22:02;;;;;;;32.90;20.32;;;;;;;1.18;93.98;101658.48;1775075;80;20967;-35
2020/12/01 03:24:30;;;;;;;36.53;21.60;;;;;;;1.20;93.95;101663.25;1775080;80;21266;-35
2020/12/01 03:26:58;;;;;;;33.45;21.77;;;;;;;1.20;93.92;101660.27;1774937;80;20996;-36
2020/12/01 03:29:25;;;;;;;35.85;22.05;;;;;;;1.23;93.94;101665.91;1775157;80;21506;-36
2020/12/01 03:31:54;;;;;;;35.70;22.32;;;;;;;1.25;93.95;101663.02;1774999;80;20979;-36
2020/12/01 03:34:22;;;;;;;41.37;21.90;;;;;;;1.24;93.92;101662.55;1775051;80;20939;-36
2020/12/01 03:36:51;;;;;;;31.20;20.57;;;;;;;1.27;93.90;101660.12;1775023;80;21387;-35
2020/12/01 03:39:19;;;;;;;39.98;23.90;;;;;;;1.29;93.90;101663.59;1774957;80;21451;-35
2020/12/01 03:41:47;;;;;;;40.60;25.02;;;;;;;1.31;93.90;101661.97;1775036;80;21015;-36
2020/12/01 03:44:16;;;;;;;38.63;24.30;;;;;;;1.34;93.90;101658.26;1775000;80;21042;-36
2020/12/01 03:46:45;;;;;;;37.93;24.60;;;;;;;1.35;93.88;101656.59;1775044;80;20968;-35
2020/12/01 03:49:13;;;;;;;42.05;25.82;;;;;;;1.38;93.87;101660.53;1775076;80;21258;-36
2020/12/01 03:51:42;;;;;;;42.25;25.00;;;;;;;1.39;93.91;101661.89;1775008;80;20952;-35
2020/12/01 03:54:12;;;;;;;44.08;24.25;;;;;;;1.43;93.91;101665.02;1775055;80;20927;-35
2020/12/01 03:56:40;;;;;;;39.13;23.50;;;;;;;1.45;93.86;101665.48;1774992;80;20928;-36
2020/12/01 03:59:09;;;;;;;35.83;23.45;;;;;;;1.46;93.86;101667.22;1775049;80;20995;-36
2020/12/01 04:01:37;;;;;;;39.63;24.70;;;;;;;1.47;93.84;101663.86;1775137;80;22524;-36
2020/12/01 04:04:06;;;;;;;40.58;24.52;;;;;;;1.49;93.86;101659.67;1774981;80;21538;-36
2020/12/01 04:06:33;;;;;;;39.25;24.87;;;;;;;1.51;93.82;101660.60;1775025;80;20936;-36
2020/12/01 04:09:03;;;;;;;46.13;25.60;;;;;;;1.51;93.82;101660.17;1775042;80;20908;-36
2020/12/01 04:11:32;;;;;;;39.60;25.35;;;;;;;1.52;93.81;101659.78;1775081;80;20920;-36
2020/12/01 04:14:00;;;;;;;44.42;24.98;;;;;;;1.53;93.81;101658.98;1775059;80;21213;-36
2020/12/01 04:16:29;;;;;;;45.73;25.23;;;;;;;1.55;93.79;101658.23;1774995;80;21030;-35
2020/12/01 04:18:58;;;;;;;39.65;25.00;;;;;;;1.56;93.77;101657.81;1775079;80;21039;-36
2020/12/01 04:21:28;;;;;;;41.48;25.70;;;;;;;1.55;93.80;101659.51;1774891;80;20952;-34
2020/12/01 04:23:56;;;;;;;50.67;26.17;;;;;;;1.56;93.80;101660.36;1775028;80;21019;-36
2020/12/01 04:26:24;;;;;;;45.85;27.25;;;;;;;1.58;93.78;101660.02;1775021;80;21156;-37
2020/12/01 04:28:52;;;;;;;48.15;27.48;;;;;;;1.57;93.80;101652.78;1774901;80;20884;-36
2020/12/01 04:31:20;;;;;;;41.65;26.02;;;;;;;1.59;93.80;101651.55;1775104;80;21129;-36
2020/12/01 04:33:49;;;;;;;41.02;26.25;;;;;;;1.60;93.84;101653.28;1774961;80;20987;-35
2020/12/01 04:36:17;;;;;;;43.52;26.10;;;;;;;1.63;93.83;101658.50;1775117;80;20983;-36
2020/12/01 04:38:46;;;;;;;41.48;27.02;;;;;;;1.64;93.82;101661.55;1775026;80;21072;-36
2020/12/01 04:41:15;;;;;;;46.28;25.90;;;;;;;1.64;93.83;101651.33;1774925;80;20911;-34
2020/12/01 04:43:47;;;;;;;39.63;24.30;;;;;;;1.67;93.83;101659.11;1729009;80;20931;-36
2020/12/01 04:46:22;;;;;;;46.28;26.65;;;;;;;1.68;93.81;101656.13;1774927;80;21026;-37
2020/12/01 04:48:55;;;;;;;43.55;27.42;;;;;;;1.70;93.79;101654.11;1775092;80;21390;-35
2020/12/01 04:51:49;;;;;;;41.73;25.75;;;;;;;1.70;93.78;101652.83;1774360;80;21367;-36
2020/12/01 04:54:45;;;;;;;38.83;23.32;;;;;;;1.71;93.83;101657.13;1774899;80;21027;-36
2020/12/01 04:57:54;;;;;;;41.48;24.10;;;;;;;1.74;93.83;101653.80;1774203;80;20943;-36
2020/12/01 05:00:33;;;;;;;33.08;21.52;;;;;;;1.77;93.82;101645.00;1774918;80;20928;-35
2020/12/01 05:03:59;;;;;;;30.32;19.37;;;;;;;1.80;93.92;101644.23;1774997;80;20940;-38
2020/12/01 05:07:14;;;;;;;32.30;17.37;;;;;;;1.85;93.91;101649.09;1774968;80;21222;-38
2020/12/01 05:09:45;;;;;;;25.92;16.23;;;;;;;1.89;93.93;101657.31;1766881;80;21227;-35
2020/12/01 05:12:38;;;;;;;25.85;14.87;;;;;;;1.93;93.84;101654.48;1775016;80;20928;-35
2020/12/01 05:15:23;;;;;;;26.45;14.28;;;;;;;1.95;93.77;101661.39;1779095;80;21003;-36
2020/12/01 05:18:25;;;;;;;31.30;14.07;;;;;;;1.95;93.66;101662.67;1780286;80;20915;-34
2020/12/01 05:20:57;;;;;;;26.27;13.65;;;;;;;1.95;93.47;101662.67;1780663;80;21274;-36
2020/12/01 05:23:40;;;;;;;24.87;13.55;;;;;;;1.96;93.43;101666.08;1780805;80;21537;-36
2020/12/01 05:26:14;;;;;;;31.15;14.38;;;;;;;1.96;93.44;101662.25;1780692;80;21010;-38
2020/12/01 05:28:55;;;;;;;23.83;13.85;;;;;;;1.98;93.29;101667.89;1780812;80;22066;-38
2020/12/01 05:31:28;;;;;;;22.70;11.63;;;;;;;1.97;93.21;101669.09;1780800;80;20936;-36
2020/12/01 05:34:01;;;;;;;27.48;11.93;;;;;;;1.96;93.21;101669.52;1777499;80;21210;-35
2020/12/01 05:36:35;;;;;;;24.63;12.43;;;;;;;1.97;93.13;101663.98;1780622;80;21125;-37
2020/12/01 05:39:13;;;;;;;22.65;11.65;;;;;;;1.98;93.00;101669.17;1780773;80;20940;-37
2020/12/01 05:41:42;;;;;;;20.43;11.63;;;;;;;1.95;92.93;101666.89;1780606;80;21038;-36
2020/12/01 05:44:23;;;;;;;16.77;11.78;;;;;;;1.97;92.92;101669.98;1780756;80;20939;-39
2020/12/01 05:47:08;;;;;;;21.10;11.55;;;;;;;1.97;92.81;101667.42;1780679;80;21427;-37
2020/12/01 05:49:54;;;;;;;19.67;12.30;;;;;;;1.97;92.71;101666.16;1754205;80;20995;-37
2020/12/01 05:52:25;;;;;;;23.10;13.98;;;;;;;1.97;92.61;101675.09;1730372;80;68190;-36
2020/12/01 05:55:18;;;;;;;25.72;12.45;;;;;;;1.95;92.46;101685.66;1666093;85;21023;-36
2020/12/01 05:58:05;;;;;;;21.17;12.10;;;;;;;1.95;92.47;101680.55;1685161;85;21027;-37
2020/12/01 06:00:36;;;;;;;30.60;13.88;;;;;;;1.96;92.44;101686.12;1685412;84;22218;-35
2020/12/01 06:03:29;;;;;;;26.45;11.45;;;;;;;1.97;92.31;101686.59;1685126;85;20945;-36
2020/12/01 06:06:00;;;;;;;25.85;13.38;;;;;;;1.95;92.25;101686.94;1685247;85;21120;-36
2020/12/01 06:08:41;;;;;;;36.28;14.98;;;;;;;1.95;92.22;101686.05;1665831;85;21003;-34
2020/12/01 06:11:37;;;;;;;29.45;13.88;;;;;;;1.94;92.05;101683.92;1685393;85;20932;-34
2020/12/01 06:14:27;;;;;;;23.22;12.73;;;;;;;1.93;91.98;101687.29;1687415;83;22218;-36
2020/12/01 06:16:56;;;;;;;32.20;13.65;;;;;;;1.92;91.98;101689.38;1698845;83;21214;-36
2020/12/01 06:19:49;;;;;;;26.00;12.75;;;;;;;1.92;91.85;101688.50;1663092;84;21075;-36
2020/12/01 06:22:38;;;;;;;27.13;13.83;;;;;;;1.90;91.88;101691.02;1677268;84;21159;-37
2020/12/01 06:25:44;;;;;;;33.15;12.53;;;;;;;1.90;91.90;101696.12;1698583;84;21614;-36
2020/12/01 06:28:52;;;;;;;24.80;12.60;;;;;;;1.90;91.95;101696.51;1699013;83;21394;-36
2020/12/01 06:31:41;;;;;;;19.15;13.10;;;;;;;1.90;91.96;101693.56;1698979;83;20964;-36
2020/12/01 06:34:35;;;;;;;26.68;12.53;;;;;;;1.91;92.00;101693.14;1685076;83;21545;-37
2020/12/01 06:37:35;;;;;;;15.23;11.12;;;;;;;1.91;91.98;101700.41;1698831;83;20937;-36
2020/12/01 06:40:29;;;;;;;23.55;13.15;;;;;;;1.90;92.00;101699.95;1699026;84;21052;-36
2020/12/01 06:43:17;;;;;;;18.85;12.30;;;;;;;1.89;91.88;101700.73;1699054;83;22284;-37
2020/12/01 06:45:49;;;;;;;20.00;11.40;;;;;;;1.88;91.88;101707.93;1698881;83;21043;-36
2020/12/01 06:48:23;;;;;;;17.02;12.03;;;;;;;1.89;91.88;101707.54;1699001;84;21527;-35
2020/12/01 06:50:55;;;;;;;19.98;12.37;;;;;;;1.89;91.84;101713.92;1698894;84;20957;-38
2020/12/01 06:53:31;;;;;;;20.65;12.75;;;;;;;1.90;91.52;101720.77;1698984;83;21226;-36
2020/12/01 06:56:14;;;;;;;24.02;13.28;;;;;;;1.87;91.48;101717.69;1665037;86;21297;-35
2020/12/01 06:58:46;;;;;;;26.77;15.18;;;;;;;1.85;91.36;101715.09;1650399;87;21019;-38
2020/12/01 07:01:26;;;;;;;19.50;14.23;;;;;;;1.85;91.25;101712.92;1658356;86;20960;-35
2020/12/01 07:04:20;;;;;;;21.35;13.80;;;;;;;1.82;91.17;101714.09;1658205;86;21070;-35
2020/12/01 07:06:59;;;;;;;26.33;12.28;;;;;;;1.79;90.89;101717.81;1658316;86;20963;-36
2020/12/01 07:09:46;;;;;;;21.42;13.43;;;;;;;1.77;90.70;101723.27;1660389;86;21435;-35
2020/12/01 07:12:36;;;;;;;20.62;14.93;;;;;;;1.76;90.65;101730.47;1660377;86;20988;-36
2020/12/01 07:15:44;;;;;;;22.48;13.38;;;;;;;1.76;90.53;101729.19;1660280;86;21106;-37
2020/12/01 07:18:29;;;;;;;24.80;14.28;;;;;;;1.75;90.44;101730.00;1660414;86;20954;-36
2020/12/01 07:21:22;;;;;;;20.75;13.98;;;;;;;1.72;90.51;101739.29;1660439;86;21015;-36
2020/12/01 07:24:09;;;;;;;22.58;13.98;;;;;;;1.72;90.52;101739.29;1660402;86;21209;-36
2020/12/01 07:26:54;;;;;;;23.27;13.72;;;;;;;1.71;90.31;101737.55;1653937;86;21094;-36
2020/12/01 07:29:44;;;;;;;24.40;14.80;;;;;;;1.69;90.38;101736.62;1660446;86;20964;-36
2020/12/01 07:32:22;;;;;;;19.87;13.38;;;;;;;1.67;90.43;101737.36;1660469;86;20987;-36
2020/12/01 07:35:07;;;;;;;16.30;11.33;;;;;;;1.69;90.31;101740.84;1660424;86;20967;-38
2020/12/01 07:37:57;;;;;;;15.58;10.30;;;;;;;1.66;90.08;101740.73;1660276;86;21634;-37
2020/12/01 07:40:29;;;;;;;12.53;8.45;;;;;;;1.65;89.72;101743.70;1660299;86;21087;-36
2020/12/01 07:43:02;;;;;;;17.25;10.63;;;;;;;1.63;88.85;101737.64;1660365;86;21070;-36
2020/12/01 07:45:30;;;;;;;19.50;10.25;;;;;;;1.62;88.27;101738.87;1660443;86;20947;-38
2020/12/01 07:48:01;;;;;;;18.73;11.12;;;;;;;1.59;88.31;101745.98;1660412;86;21031;-36
2020/12/01 07:50:31;;;;;;;16.17;11.05;;;;;;;1.57;88.33;101740.84;1660484;86;21288;-35
2020/12/01 07:53:06;;;;;;;19.70;11.18;;;;;;;1.56;87.94;101739.49;1660344;86;21014;-37
2020/12/01 07:55:48;;;;;;;20.55;11.33;;;;;;;1.54;87.97;101744.55;1660380;86;21438;-36
2020/12/01 07:58:22;;;;;;;14.50;10.75;;;;;;;1.54;88.40;101741.11;1660431;86;21042;-36
2020/12/01 08:01:02;;;;;;;11.65;8.83;;;;;;;1.54;88.47;101736.02;1660348;86;20939;-37
2020/12/01 08:03:36;;;;;;;10.93;8.85;;;;;;;1.55;87.87;101731.38;1660482;86;21402;-36
2020/12/01 08:06:11;;;;;;;9.73;7.78;;;;;;;1.53;87.24;101741.93;1660310;86;21215;-37
2020/12/01 08:08:44;;;;;;;11.43;8.88;;;;;;;1.53;87.27;101740.66;1660406;86;20990;-36
2020/12/01 08:11:17;;;;;;;12.05;9.10;;;;;;;1.56;87.11;101743.32;1660403;86;21102;-37
2020/12/01 08:13:48;;;;;;;12.35;9.15;;;;;;;1.56;87.24;101736.94;1660329;86;21054;-37
2020/12/01 08:16:21;;;;;;;9.98;8.38;;;;;;;1.56;87.56;101748.03;1616819;86;21459;-35
2020/12/01 08:18:50;;;;;;;12.07;9.45;;;;;;;1.59;87.88;101753.65;1659790;86;21043;-35
2020/12/01 08:21:22;;;;;;;18.10;10.50;;;;;;;1.61;87.16;101745.64;1660369;86;21070;-37
2020/12/01 08:23:53;;;;;;;10.88;8.30;;;;;;;1.60;86.65;101734.97;1660369;86;20963;-37
2020/12/01 08:26:27;;;;;;;14.18;9.05;;;;;;;1.56;86.37;101749.70;1660358;86;20948;-36
2020/12/01 08:29:15;;;;;;;13.38;8.00;;;;;;;1.54;85.62;101737.29;1660361;86;21394;-36
2020/12/01 08:32:07;;;;;;;10.23;8.98;;;;;;;1.50;86.06;101742.67;1660318;86;21569;-36
2020/12/01 08:34:51;;;;;;;15.63;9.15;;;;;;;1.50;86.02;101749.05;1660162;86;21090;-36
2020/12/01 08:38:02;;;;;;;14.73;8.18;;;;;;;1.50;86.02;101752.02;1660355;86;20987;-36
2020/12/01 08:40:48;;;;;;;13.22;8.95;;;;;;;1.50;85.84;101754.57;1660475;86;20908;-36
2020/12/01 08:43:46;;;;;;;12.45;9.93;;;;;;;1.52;85.55;101744.91;1660399;86;21228;-35
2020/12/01 08:46:23;;;;;;;16.87;10.32;;;;;;;1.51;85.78;101744.83;1660379;86;20931;-35
2020/12/01 08:49:06;;;;;;;14.28;10.10;;;;;;;1.48;85.21;101742.16;1660360;86;21098;-36
2020/12/01 08:51:39;;;;;;;12.58;9.88;;;;;;;1.49;85.31;101738.80;1660355;86;20908;-36
2020/12/01 08:54:17;;;;;;;13.28;9.13;;;;;;;1.48;84.29;101725.57;1657830;86;21181;-36
2020/12/01 08:56:52;;;;;;;16.77;11.88;;;;;;;1.42;84.86;101736.01;1660379;85;21405;-35
2020/12/01 08:59:57;;;;;;;20.62;12.53;;;;;;;1.40;85.05;101731.25;1656418;86;20962;-36
2020/12/01 09:02:31;;;;;;;13.62;9.70;;;;;;;1.41;84.60;101730.44;1660140;86;21034;-35
2020/12/01 09:04:59;;;;;;;14.20;9.78;;;;;;;1.37;84.75;101728.97;1659687;85;21047;-39
2020/12/01 09:07:32;;;;;;;19.82;12.88;;;;;;;1.38;84.82;101725.19;1660428;86;21007;-36
2020/12/01 09:10:24;;;;;;;15.85;10.85;;;;;;;1.39;84.86;101705.66;1660276;86;22391;-35
2020/12/01 09:15:46;;;;;;;18.92;10.93;;;;;;;1.42;84.13;101707.94;1660192;86;21023;-36
2020/12/01 09:23:32;;;;;;;16.10;10.60;;;;;;;1.54;83.24;101702.83;1812829;77;22325;-36
2020/12/01 09:26:01;;;;;;;17.23;11.53;;;;;;;1.50;83.51;101701.83;1784382;79;20900;-37
2020/12/01 09:28:30;;;;;;;22.17;13.78;;;;;;;1.55;82.93;101708.40;1784338;80;21326;-37
2020/12/01 09:31:05;;;;;;;19.82;11.95;;;;;;;1.57;82.78;101691.45;1784187;80;20978;-36
2020/12/01 09:33:33;;;;;;;17.50;10.98;;;;;;;1.55;82.44;101695.63;1784528;80;20975;-36
2020/12/01 09:36:03;;;;;;;17.42;12.03;;;;;;;1.48;82.74;101692.39;1784219;79;20927;-36
2020/12/01 09:38:31;;;;;;;22.70;12.00;;;;;;;1.43;82.31;101698.19;1784361;80;21027;-37
2020/12/01 09:41:00;;;;;;;20.72;11.55;;;;;;;1.42;82.40;101699.00;1784268;80;21276;-35
2020/12/01 09:43:34;;;;;;;18.80;12.00;;;;;;;1.38;82.89;101696.26;1784187;80;20935;-36
2020/12/01 09:46:03;;;;;;;23.50;13.70;;;;;;;1.38;83.14;101698.39;1783554;80;20994;-35
2020/12/01 09:48:37;;;;;;;21.75;12.75;;;;;;;1.35;83.26;101696.14;1784018;80;20967;-35
2020/12/01 09:51:02;;;;;;;24.35;13.30;;;;;;;1.33;83.33;101690.97;1783875;80;20994;-35
2020/12/01 09:53:48;;;;;;;18.48;11.80;;;;;;;1.29;83.31;101704.42;1784277;80;21427;-35
2020/12/01 09:59:05;;;;;;;20.52;12.80;;;;;;;1.22;83.45;101694.36;1784201;79;20990;-37
2020/12/01 10:09:45;;;;;;;14.50;8.20;;;;;;;1.20;82.82;101697.69;1784110;80;20892;-35
2020/12/01 10:24:08;;;;;;;9.95;6.87;;;;;;;1.16;84.01;101682.65;1788138;80;21057;-36
2020/12/01 10:36:25;;;;;;;11.88;7.22;;;;;;;0.99;84.77;101694.30;1790502;80;20907;-36
2020/12/01 10:38:53;;;;;;;10.38;8.23;;;;;;;0.90;85.11;101695.64;1790578;80;20966;-35
2020/12/01 10:41:29;;;;;;;14.83;10.13;;;;;;;0.88;85.57;101694.28;1790612;80;21274;-37
2020/12/01 10:43:57;;;;;;;13.55;9.23;;;;;;;0.81;85.86;101685.50;1790585;80;20969;-36
2020/12/01 10:46:25;;;;;;;14.00;7.65;;;;;;;0.75;86.29;101686.92;1790498;80;21413;-37
2020/12/01 10:48:54;;;;;;;12.45;7.90;;;;;;;0.75;86.75;101683.98;1790534;80;21043;-35
2020/12/01 10:51:22;;;;;;;15.65;10.05;;;;;;;0.79;86.82;101684.99;1790537;80;20931;-37
2020/12/01 10:53:51;;;;;;;15.50;10.55;;;;;;;0.77;87.27;101673.44;1790554;80;21025;-38
2020/12/01 10:56:18;;;;;;;14.90;9.65;;;;;;;0.79;87.44;101672.24;1790530;80;21002;-37
2020/12/01 10:58:46;;;;;;;17.60;10.20;;;;;;;0.80;87.53;101681.22;1790554;80;21184;-36
2020/12/01 11:01:14;;;;;;;16.50;10.50;;;;;;;0.80;87.55;101681.63;1790506;80;21316;-38
2020/12/01 11:03:44;;;;;;;16.87;10.88;;;;;;;0.81;87.39;101671.91;1790496;80;20998;-36
2020/12/01 11:06:14;;;;;;;19.75;11.38;;;;;;;0.74;87.41;101675.87;1790495;80;21010;-36
2020/12/01 11:08:42;;;;;;;17.67;10.68;;;;;;;0.70;87.33;101676.12;1790645;80;20959;-35
2020/12/01 11:11:17;;;;;;;17.95;10.03;;;;;;;0.70;87.52;101667.20;1790535;80;22643;-35
2020/12/01 11:13:45;;;;;;;24.00;12.80;;;;;;;0.67;87.36;101675.16;1790794;80;21034;-35
2020/12/01 11:16:13;;;;;;;22.20;13.58;;;;;;;0.66;87.45;101683.61;1790558;80;20927;-37
2020/12/01 11:18:41;;;;;;;18.87;12.00;;;;;;;0.64;87.73;101680.13;1790543;80;20983;-36
2020/12/01 11:21:09;;;;;;;20.45;13.48;;;;;;;0.62;87.82;101674.95;1790575;80;21066;-35
2020/12/01 11:23:38;;;;;;;22.45;11.08;;;;;;;0.59;88.00;101674.83;1790409;80;21360;-37
2020/12/01 11:26:06;;;;;;;25.32;13.85;;;;;;;0.59;88.19;101680.31;1790448;80;20994;-36
2020/12/01 11:28:33;;;;;;;28.92;14.53;;;;;;;0.61;88.34;101665.95;1790499;80;20982;-36
2020/12/01 11:31:01;;;;;;;24.40;13.90;;;;;;;0.60;87.64;101674.02;1790523;80;21049;-35
2020/12/01 11:33:31;;;;;;;32.75;14.55;;;;;;;0.57;87.80;101661.15;1787879;80;21034;-36
2020/12/01 11:36:00;;;;;;;29.48;14.68;;;;;;;0.57;87.90;101668.38;1790511;80;21388;-37
2020/12/01 11:38:28;;;;;;;34.65;17.73;;;;;;;0.56;88.06;101669.60;1790432;80;20986;-36
2020/12/01 11:40:56;;;;;;;27.80;15.72;;;;;;;0.52;88.27;101673.69;1790499;80;20920;-36
2020/12/01 11:43:24;;;;;;;27.62;16.12;;;;;;;0.51;88.22;101668.13;1790572;80;21050;-35
2020/12/01 11:45:51;;;;;;;27.17;14.18;;;;;;;0.48;88.17;101673.09;1790405;80;21074;-36
2020/12/01 11:48:19;;;;;;;26.05;15.43;;;;;;;0.49;87.83;101677.38;1790634;80;21364;-36
2020/12/01 11:50:47;;;;;;;29.48;15.68;;;;;;;0.46;88.02;101672.16;1790464;80;20967;-36
2020/12/01 11:53:15;;;;;;;32.42;17.32;;;;;;;0.45;88.22;101674.24;1790600;80;20966;-36
2020/12/01 11:55:42;;;;;;;30.27;16.67;;;;;;;0.43;88.45;101679.68;1761814;80;20994;-38
2020/12/01 11:58:11;;;;;;;27.90;15.23;;;;;;;0.43;88.39;101680.95;1790616;80;20927;-36
2020/12/01 12:00:39;;;;;;;30.85;15.88;;;;;;;0.41;88.44;101678.74;1790542;80;22569;-38
2020/12/01 12:03:08;;;;;;;31.42;15.83;;;;;;;0.40;88.55;101679.12;1790447;80;20998;-37
2020/12/01 12:05:35;;;;;;;30.45;16.42;;;;;;;0.41;88.68;101683.84;1790469;80;21033;-36
2020/12/01 12:08:05;;;;;;;33.18;16.23;;;;;;;0.38;88.81;101683.68;1790450;78;20990;-35
2020/12/01 12:10:33;;;;;;;29.32;15.43;;;;;;;0.39;88.82;101686.30;1790519;80;20982;-35
2020/12/01 12:13:01;;;;;;;29.32;15.78;;;;;;;0.39;88.88;101689.27;1790435;80;21198;-36
2020/12/01 12:15:29;;;;;;;34.45;18.32;;;;;;;0.40;89.04;101683.38;1790450;80;21002;-37
2020/12/01 12:17:57;;;;;;;29.63;16.82;;;;;;;0.41;88.95;101688.94;1790519;80;20994;-36
2020/12/01 12:20:24;;;;;;;35.05;15.63;;;;;;;0.39;89.00;101678.66;1790479;80;20994;-36
2020/12/01 12:22:52;;;;;;;31.97;16.52;;;;;;;0.37;88.95;101693.02;1790801;79;20966;-38
2020/12/01 12:25:20;;;;;;;36.50;19.95;;;;;;;0.36;89.16;101695.48;1792998;80;21068;-36
2020/12/01 12:27:48;;;;;;;29.65;18.12;;;;;;;0.36;89.33;101688.73;1792935;80;20923;-35
2020/12/01 12:30:17;;;;;;;43.10;19.37;;;;;;;0.31;89.47;101688.05;1792986;80;20958;-37